Time;durP1;ratioP1;P1;durP2;ratioP2;P2;SDS_P1;SDS_P2;PMS_P1;PMS_P2;Temp;Humidity;BMP_temperature;BMP_pressure;BME280_temperature;BME280_humidity;BME280_pressure;Samples;Min_cycle;Max_cycle;Signal;HPM_P1;HPM_P2
2022/06/08 00:00:24;;;;;;;39.17;4.85;;;;;;;13.43;100.00;98047.63;2596287;28;20057;-87
2022/06/08 00:01:54;;;;;;;161.98;8.13;;;;;;;13.45;100.00;98050.22;2596266;28;20469;-87
2022/06/08 00:03:14;;;;;;;170.45;9.20;;;;;;;13.41;100.00;98055.59;2596407;28;20057;-86
2022/06/08 00:04:29;;;;;;;122.47;7.45;;;;;;;13.38;100.00;98054.88;2594495;28;20144;-86
2022/06/08 00:05:45;;;;;;;112.03;6.55;;;;;;;13.38;100.00;98053.06;2596026;28;20500;-87
2022/06/08 00:07:00;;;;;;;127.10;9.55;;;;;;;13.36;100.00;98057.56;2595812;28;20471;-86
2022/06/08 00:08:16;;;;;;;144.63;7.90;;;;;;;13.35;100.00;98057.66;2596480;28;20689;-88
2022/06/08 00:09:31;;;;;;;60.40;5.60;;;;;;;13.35;100.00;98058.47;2596371;28;20057;-87
2022/06/08 00:10:47;;;;;;;92.95;6.50;;;;;;;13.34;100.00;98051.53;2596347;28;20132;-87
2022/06/08 00:12:04;;;;;;;135.85;8.15;;;;;;;13.32;100.00;98057.75;2596384;28;20635;-87
2022/06/08 00:13:20;;;;;;;174.38;9.15;;;;;;;13.37;100.00;98058.44;2596164;28;20057;-87
2022/06/08 00:14:36;;;;;;;119.70;7.43;;;;;;;13.47;100.00;98051.00;2596095;28;20053;-86
2022/06/08 00:15:53;;;;;;;117.95;7.18;;;;;;;13.47;100.00;98057.09;2596206;28;20507;-87
2022/06/08 00:17:09;;;;;;;96.65;7.07;;;;;;;13.48;100.00;98050.94;2596206;28;20115;-86
2022/06/08 00:18:25;;;;;;;103.75;6.55;;;;;;;13.45;100.00;98053.69;2596201;28;20041;-87
2022/06/08 00:19:40;;;;;;;56.13;5.13;;;;;;;13.41;100.00;98047.69;2596227;28;20053;-86
2022/06/08 00:20:56;;;;;;;86.70;6.03;;;;;;;13.42;100.00;98053.81;2596223;28;20136;-87
2022/06/08 00:22:12;;;;;;;63.33;5.40;;;;;;;13.41;100.00;98052.97;2596098;28;20477;-87
2022/06/08 00:23:28;;;;;;;66.20;6.63;;;;;;;13.38;100.00;98050.44;2596336;28;20087;-87
2022/06/08 00:24:44;;;;;;;41.55;5.88;;;;;;;13.41;100.00;98052.97;2596279;28;20053;-87
2022/06/08 00:26:00;;;;;;;15.80;3.85;;;;;;;13.42;100.00;98051.16;2596192;28;20050;-88
2022/06/08 00:27:16;;;;;;;30.38;7.10;;;;;;;13.42;100.00;98041.53;2595889;28;20046;-86
2022/06/08 00:28:32;;;;;;;28.90;5.18;;;;;;;13.39;100.00;98046.91;2595907;28;20056;-86
2022/06/08 00:29:48;;;;;;;12.32;4.80;;;;;;;13.37;100.00;98043.50;2596055;28;20136;-86
2022/06/08 00:31:03;;;;;;;13.52;4.85;;;;;;;13.36;100.00;98036.53;2596271;28;20038;-86
2022/06/08 00:32:19;;;;;;;20.83;5.47;;;;;;;13.39;100.00;98040.81;2596348;28;20408;-86
2022/06/08 00:33:35;;;;;;;13.30;4.20;;;;;;;13.37;100.00;98034.75;2596066;28;20057;-90
2022/06/08 00:34:51;;;;;;;10.13;4.82;;;;;;;13.35;100.00;98033.97;2595753;28;20061;-90
2022/06/08 00:36:06;;;;;;;12.63;4.30;;;;;;;13.35;100.00;98037.44;2596212;28;20594;-87
2022/06/08 00:37:23;;;;;;;14.10;5.97;;;;;;;13.37;100.00;98043.50;2595956;28;21155;-87
2022/06/08 00:38:39;;;;;;;17.63;4.55;;;;;;;13.35;100.00;98047.97;2596006;28;20092;-86
2022/06/08 00:39:55;;;;;;;16.20;4.50;;;;;;;13.38;100.00;98033.84;2595932;28;20049;-86
2022/06/08 00:41:32;;;;;;;51.75;6.30;;;;;;;13.38;100.00;98041.72;2596033;28;20132;-86
2022/06/08 00:42:50;;;;;;;11.40;4.57;;;;;;;13.39;100.00;98036.38;2596047;28;20610;-89
2022/06/08 00:44:12;;;;;;;26.67;5.47;;;;;;;13.37;100.00;98040.03;2595972;28;20053;-86
2022/06/08 00:45:28;;;;;;;;;;;;;;;13.36;100.00;98039.16;2596681;28;20424;-85
2022/06/08 00:46:45;;;;;;;12.18;4.68;;;;;;;13.33;100.00;98041.06;2596029;28;19953;-86
2022/06/08 00:48:04;;;;;;;8.27;4.60;;;;;;;13.29;100.00;98040.38;2595956;28;20057;-87
2022/06/08 00:49:27;;;;;;;16.90;5.50;;;;;;;13.27;100.00;98031.72;2595898;28;20080;-86
2022/06/08 00:50:51;;;;;;;12.07;5.25;;;;;;;13.27;100.00;98034.34;2596104;28;20045;-86
2022/06/08 00:52:07;;;;;;;18.88;5.40;;;;;;;13.28;100.00;98034.25;2595252;28;20049;-87
2022/06/08 00:53:27;;;;;;;18.13;5.38;;;;;;;13.28;100.00;98036.03;2596063;28;20127;-86
2022/06/08 00:54:50;;;;;;;7.22;4.82;;;;;;;13.33;100.00;98033.19;2595801;28;20076;-88
2022/06/08 00:56:16;;;;;;;13.85;4.88;;;;;;;13.31;100.00;98035.91;2596094;28;20049;-86
2022/06/08 00:57:41;;;;;;;11.95;5.28;;;;;;;13.31;100.00;98035.03;2595943;28;20049;-86
2022/06/08 00:58:58;;;;;;;9.70;4.88;;;;;;;13.31;100.00;98028.00;2595961;28;20099;-87
2022/06/08 01:00:20;;;;;;;9.90;4.75;;;;;;;13.30;100.00;98034.19;2595925;28;20083;-87
2022/06/08 01:01:36;;;;;;;9.93;4.30;;;;;;;13.30;100.00;98028.94;2595950;28;20049;-86
2022/06/08 01:02:52;;;;;;;7.13;4.70;;;;;;;13.32;100.00;98028.84;2595914;28;20079;-86
2022/06/08 01:04:13;;;;;;;11.40;4.43;;;;;;;13.33;100.00;98022.66;2590548;28;20073;-87
2022/06/08 01:05:34;;;;;;;7.60;4.68;;;;;;;13.33;100.00;98031.41;2595409;28;20507;-87
2022/06/08 01:06:54;;;;;;;8.00;4.38;;;;;;;13.34;100.00;98032.25;2596193;28;20049;-88
2022/06/08 01:08:26;;;;;;;6.93;4.30;;;;;;;13.33;100.00;98035.81;2596071;28;20060;-87
2022/06/08 01:09:42;;;;;;;12.65;4.93;;;;;;;13.34;100.00;98041.00;2595961;28;20768;-86
2022/06/08 01:11:03;;;;;;;6.80;4.15;;;;;;;13.31;100.00;98033.28;2595623;28;20057;-87
2022/06/08 01:12:20;;;;;;;7.53;4.47;;;;;;;13.31;100.00;98037.66;2595916;28;20060;-86
2022/06/08 01:13:38;;;;;;;8.25;4.50;;;;;;;13.32;100.00;98042.84;2595809;28;20110;-87
2022/06/08 01:14:54;;;;;;;8.52;4.97;;;;;;;13.31;100.00;98035.03;2595610;28;20049;-90
2022/06/08 01:16:11;;;;;;;7.60;4.30;;;;;;;13.30;100.00;98036.81;2595610;28;20058;-86
2022/06/08 01:17:27;;;;;;;8.25;5.00;;;;;;;13.28;100.00;98038.66;2595746;28;20049;-89
2022/06/08 01:18:42;;;;;;;8.43;4.90;;;;;;;13.26;100.00;98032.59;2596032;28;20520;-86
2022/06/08 01:19:58;;;;;;;8.07;4.90;;;;;;;13.24;100.00;98027.44;2595662;28;20084;-87
2022/06/08 01:21:20;;;;;;;7.80;4.60;;;;;;;13.25;100.00;98031.78;2595757;28;20058;-86
2022/06/08 01:22:36;;;;;;;5.95;4.75;;;;;;;13.20;100.00;98023.25;2595820;28;20049;-88
2022/06/08 01:23:56;;;;;;;7.90;4.20;;;;;;;13.13;100.00;98027.06;2595868;28;20057;-86
2022/06/08 01:25:15;;;;;;;5.20;4.20;;;;;;;13.09;100.00;98022.88;2595912;28;20484;-86
2022/06/08 01:26:38;;;;;;;6.35;3.78;;;;;;;13.04;100.00;98027.47;2595268;28;20065;-88
2022/06/08 01:27:53;;;;;;;;;;;;;;;13.03;100.00;98025.75;2596075;28;20049;-86
2022/06/08 01:29:13;;;;;;;6.70;4.07;;;;;;;13.00;100.00;98026.78;2595753;28;19925;-87
2022/06/08 01:30:43;;;;;;;7.43;4.30;;;;;;;13.02;100.00;98022.28;2595761;28;20455;-87
2022/06/08 01:32:03;;;;;;;7.55;4.13;;;;;;;13.00;100.00;98019.72;2595669;28;20057;-86
2022/06/08 01:33:49;;;;;;;5.07;4.10;;;;;;;12.97;100.00;98024.25;2595950;28;20484;-88
2022/06/08 01:35:32;;;;;;;7.05;4.57;;;;;;;12.91;100.00;98020.13;2595376;28;20071;-90
2022/06/08 01:37:16;;;;;;;7.43;4.30;;;;;;;12.89;100.00;98021.13;2595765;28;20505;-86
2022/06/08 01:39:03;;;;;;;4.80;4.05;;;;;;;12.87;100.00;98018.56;2595887;28;20085;-87
2022/06/08 01:40:40;;;;;;;4.97;3.80;;;;;;;12.88;100.00;98022.06;2595612;28;20076;-87
2022/06/08 01:42:14;;;;;;;5.97;4.40;;;;;;;12.84;100.00;98019.53;2595836;28;20042;-87
2022/06/08 01:43:40;;;;;;;6.43;4.22;;;;;;;12.83;100.00;98022.25;2595729;28;20061;-87
2022/06/08 01:46:50;;;;;;;7.55;4.45;;;;;;;12.85;100.00;98016.03;2595523;28;20049;-86
2022/06/08 01:48:43;;;;;;;6.18;4.28;;;;;;;12.83;100.00;98017.84;2595670;28;20111;-89
2022/06/08 01:50:20;;;;;;;4.60;4.03;;;;;;;12.81;100.00;98013.59;2595513;28;20444;-92
2022/06/08 01:52:06;;;;;;;7.18;3.92;;;;;;;12.79;100.00;98026.78;2595743;28;20061;-87
2022/06/08 01:53:55;;;;;;;4.93;3.58;;;;;;;12.77;100.00;98015.50;2595774;28;20060;-87
2022/06/08 01:55:20;;;;;;;4.53;3.55;;;;;;;12.72;100.00;98017.47;2595453;28;20064;-87
2022/06/08 01:57:03;;;;;;;5.03;3.70;;;;;;;12.69;100.00;98014.97;2595557;28;20049;-87
2022/06/08 01:58:19;;;;;;;;;;;;;;;12.69;100.00;98021.09;2596028;28;20053;-90
2022/06/08 01:59:44;;;;;;;7.97;2.95;;;;;;;12.69;100.00;98017.59;2595621;28;19925;-87
2022/06/08 02:01:16;;;;;;;6.72;3.25;;;;;;;12.69;100.00;98014.97;2595683;28;20120;-86
2022/06/08 02:02:34;;;;;;;5.82;3.63;;;;;;;12.72;100.00;98009.59;2595292;28;20078;-87
2022/06/08 02:04:04;;;;;;;4.95;3.63;;;;;;;12.76;100.00;98015.56;2596977;28;20057;-87
2022/06/08 02:06:00;;;;;;;5.05;3.92;;;;;;;12.79;100.00;98016.28;2597378;28;20042;-86
2022/06/08 02:07:26;;;;;;;5.25;3.78;;;;;;;12.80;100.00;98017.16;2596485;28;20057;-86
2022/06/08 02:08:58;;;;;;;4.38;3.47;;;;;;;12.83;100.00;98020.47;2597434;28;20068;-86
2022/06/08 02:10:33;;;;;;;4.15;3.42;;;;;;;12.82;100.00;98020.56;2597301;28;20056;-87
2022/06/08 02:11:57;;;;;;;5.10;3.60;;;;;;;12.84;100.00;98013.44;2598617;28;20045;-86
2022/06/08 02:13:26;;;;;;;7.65;4.15;;;;;;;12.86;100.00;98019.50;2597411;28;20096;-88
2022/06/08 02:14:51;;;;;;;21.48;4.70;;;;;;;12.82;100.00;98017.94;2597386;28;20089;-88
2022/06/08 02:16:17;;;;;;;18.90;4.63;;;;;;;12.78;100.00;98019.81;2597414;28;20053;-86
2022/06/08 02:17:43;;;;;;;18.48;5.40;;;;;;;12.82;100.00;98020.56;2597337;28;20147;-86
2022/06/08 02:19:05;;;;;;;90.90;7.05;;;;;;;12.84;100.00;98024.78;2597445;28;20315;-88
2022/06/08 02:20:44;;;;;;;84.53;7.07;;;;;;;12.81;100.00;98019.69;2597624;28;20425;-88
2022/06/08 02:22:20;;;;;;;23.45;4.90;;;;;;;12.81;100.00;98018.84;2596857;28;20132;-86
2022/06/08 02:23:48;;;;;;;21.08;5.72;;;;;;;12.83;100.00;98023.09;2597139;28;20263;-87
2022/06/08 02:25:18;;;;;;;15.88;4.80;;;;;;;12.85;100.00;98023.03;2597395;28;20159;-87
2022/06/08 02:26:38;;;;;;;57.85;6.70;;;;;;;12.87;100.00;98021.19;2596918;28;20140;-89
2022/06/08 02:28:01;;;;;;;36.17;5.90;;;;;;;12.88;100.00;98022.06;2597087;28;20072;-88
2022/06/08 02:29:26;;;;;;;25.67;5.63;;;;;;;12.90;100.00;98025.47;2596938;28;20532;-87
2022/06/08 02:30:49;;;;;;;56.67;6.38;;;;;;;12.91;100.00;98029.81;2597198;28;20058;-87
2022/06/08 02:35:43;;;;;;;46.90;5.72;;;;;;;12.83;100.00;98025.72;2597323;28;20050;-87
2022/06/08 02:37:01;;;;;;;20.65;4.85;;;;;;;12.83;100.00;98023.09;2597322;28;20064;-87
2022/06/08 02:38:22;;;;;;;41.13;5.22;;;;;;;12.82;100.00;98023.19;2597018;28;20091;-87
2022/06/08 02:39:47;;;;;;;31.20;5.47;;;;;;;12.83;100.00;98022.25;2597340;28;20049;-87
2022/06/08 02:41:06;;;;;;;28.90;4.97;;;;;;;12.83;100.00;98025.72;2597178;28;20389;-89
2022/06/08 02:42:28;;;;;;;16.77;4.78;;;;;;;12.81;100.00;98022.31;2597194;28;20060;-87
2022/06/08 02:43:51;;;;;;;11.52;4.65;;;;;;;12.82;100.00;98028.44;2595932;28;20046;-87
2022/06/08 02:45:14;;;;;;;28.73;4.97;;;;;;;12.82;100.00;98023.19;2596852;28;20078;-87
2022/06/08 02:46:33;;;;;;;;;;;;;;;12.81;100.00;98024.09;2597718;28;20053;-89
2022/06/08 02:47:52;;;;;;;28.08;4.93;;;;;;;12.81;100.00;98029.34;2596842;28;19940;-87
2022/06/08 02:49:09;;;;;;;12.88;4.03;;;;;;;12.79;100.00;98021.53;2597264;28;20061;-87
2022/06/08 02:50:26;;;;;;;10.20;4.10;;;;;;;12.80;100.00;98019.78;2596914;28;20059;-87
2022/06/08 02:51:46;;;;;;;32.30;4.47;;;;;;;12.82;100.00;98023.19;2597038;28;20057;-87
2022/06/08 02:53:17;;;;;;;17.08;4.45;;;;;;;12.83;100.00;98024.88;2597011;28;20057;-89
2022/06/08 02:54:32;;;;;;;25.10;4.57;;;;;;;12.83;100.00;98020.47;2597049;28;20061;-87
2022/06/08 02:55:51;;;;;;;31.48;5.60;;;;;;;12.84;100.00;98016.09;2597116;28;20185;-90
2022/06/08 02:57:34;;;;;;;37.88;4.43;;;;;;;12.83;100.00;98024.88;2596796;28;20095;-92
2022/06/08 02:58:59;;;;;;;12.75;3.58;;;;;;;12.87;100.00;98026.44;2596917;28;20112;-88
2022/06/08 03:00:21;;;;;;;11.60;4.00;;;;;;;12.90;100.00;98023.69;2596543;28;20060;-88
2022/06/08 03:01:49;;;;;;;10.98;3.97;;;;;;;12.87;100.00;98028.25;2597106;28;20045;-87
2022/06/08 03:03:09;;;;;;;4.50;3.58;;;;;;;12.87;100.00;98021.19;2596976;28;20677;-90
2022/06/08 03:04:35;;;;;;;6.60;3.35;;;;;;;12.84;100.00;98027.44;2596484;28;20104;-86
2022/06/08 03:05:58;;;;;;;13.90;4.20;;;;;;;12.84;100.00;98030.06;2596853;28;20050;-90
2022/06/08 03:07:21;;;;;;;7.32;3.80;;;;;;;12.83;100.00;98028.34;2596725;28;20538;-90
2022/06/08 03:08:42;;;;;;;9.15;3.90;;;;;;;12.81;100.00;98024.09;2596829;28;20049;-87
2022/06/08 03:10:01;;;;;;;8.68;3.47;;;;;;;12.76;100.00;98026.94;2596986;28;20102;-88
2022/06/08 03:11:19;;;;;;;4.10;3.60;;;;;;;12.78;100.00;98021.59;2596908;28;20052;-87
2022/06/08 03:12:37;;;;;;;7.05;3.33;;;;;;;12.78;100.00;98025.09;2596588;28;20054;-88
2022/06/08 03:13:58;;;;;;;6.05;3.25;;;;;;;12.79;100.00;98020.69;2596783;28;20326;-87
2022/06/08 03:15:16;;;;;;;4.68;3.53;;;;;;;12.76;100.00;98029.56;2595725;28;20081;-89
2022/06/08 03:16:36;;;;;;;4.38;3.55;;;;;;;12.73;100.00;98024.44;2596546;28;20053;-92
2022/06/08 03:17:52;;;;;;;4.78;3.20;;;;;;;12.74;100.00;98023.53;2596812;28;20148;-89
2022/06/08 03:19:09;;;;;;;5.40;3.00;;;;;;;12.73;100.00;98026.19;2596871;28;20045;-89
2022/06/08 03:20:26;;;;;;;4.68;3.22;;;;;;;12.68;100.00;98024.63;2596883;28;20054;-88
2022/06/08 03:21:42;;;;;;;3.95;3.22;;;;;;;12.64;100.00;98030.09;2596804;28;20045;-85
2022/06/08 03:22:57;;;;;;;3.30;3.00;;;;;;;12.59;100.00;98024.19;2596740;28;20060;-85
2022/06/08 03:24:13;;;;;;;3.88;3.20;;;;;;;12.58;100.00;98023.31;2596766;28;20452;-85
2022/06/08 03:25:29;;;;;;;4.93;3.10;;;;;;;12.56;100.00;98027.78;2596719;28;20480;-86
2022/06/08 03:26:49;;;;;;;6.32;3.10;;;;;;;12.56;100.00;98026.00;2596749;28;20056;-85
2022/06/08 03:28:05;;;;;;;7.80;2.55;;;;;;;12.51;100.00;98027.16;2596417;28;20053;-85
2022/06/08 03:29:21;;;;;;;5.75;3.08;;;;;;;12.48;100.00;98024.63;2596620;28;20053;-85
2022/06/08 03:30:36;;;;;;;3.35;2.92;;;;;;;12.43;100.00;98020.44;2596868;28;20485;-86
2022/06/08 03:31:52;;;;;;;3.47;3.03;;;;;;;12.42;100.00;98017.84;2596824;28;20087;-86
2022/06/08 03:33:09;;;;;;;5.72;3.00;;;;;;;12.41;100.00;98018.78;2596236;28;20055;-86
2022/06/08 03:34:24;;;;;;;8.15;3.67;;;;;;;12.36;100.00;98018.13;2595593;28;20144;-83
2022/06/08 03:35:41;;;;;;;3.40;3.10;;;;;;;12.34;100.00;98018.19;2594895;28;20053;-84
2022/06/08 03:36:57;;;;;;;4.75;3.42;;;;;;;12.29;100.00;98017.53;2596897;28;20488;-85
2022/06/08 03:38:12;;;;;;;5.63;3.58;;;;;;;12.31;100.00;98015.69;2596347;28;20410;-85
2022/06/08 03:39:29;;;;;;;6.47;3.35;;;;;;;12.32;100.00;98014.78;2596374;28;20053;-84
2022/06/08 03:40:44;;;;;;;5.53;3.40;;;;;;;12.31;100.00;98013.06;2596422;28;20076;-83
2022/06/08 03:42:00;;;;;;;3.90;3.17;;;;;;;12.31;100.00;98022.72;2596503;28;20484;-83
2022/06/08 03:43:16;;;;;;;4.78;3.10;;;;;;;12.23;100.00;98015.19;2596530;28;20049;-82
2022/06/08 03:44:31;;;;;;;4.13;3.55;;;;;;;12.23;100.00;98023.06;2596442;28;20095;-84
2022/06/08 03:45:51;;;;;;;4.90;3.75;;;;;;;12.28;100.00;98016.66;2595933;28;20049;-83
2022/06/08 03:47:11;;;;;;;8.25;3.60;;;;;;;12.32;100.00;98020.03;2596460;28;20054;-83
2022/06/08 03:48:26;;;;;;;5.05;3.38;;;;;;;12.35;100.00;98016.44;2596118;28;20053;-86
2022/06/08 03:49:42;;;;;;;4.30;3.90;;;;;;;12.38;100.00;98018.91;2596410;28;20049;-83
2022/06/08 03:51:00;;;;;;;7.57;3.70;;;;;;;12.42;100.00;98025.72;2596518;28;20107;-82
2022/06/08 03:52:20;;;;;;;6.65;3.75;;;;;;;12.35;100.00;98019.88;2596495;28;20041;-83
2022/06/08 03:53:41;;;;;;;3.80;3.40;;;;;;;12.42;100.00;98013.47;2596493;28;20073;-82
2022/06/08 03:55:01;;;;;;;3.17;2.88;;;;;;;12.44;100.00;98021.28;2596449;28;20045;-83
2022/06/08 03:56:17;;;;;;;3.80;3.38;;;;;;;12.45;100.00;98006.38;2596120;28;20053;-83
2022/06/08 03:57:34;;;;;;;3.55;3.15;;;;;;;12.42;100.00;98012.59;2596373;28;20056;-83
2022/06/08 03:58:50;;;;;;;5.75;3.15;;;;;;;12.38;100.00;98011.03;2596088;28;20144;-84
2022/06/08 04:00:06;;;;;;;4.20;3.10;;;;;;;12.37;100.00;98014.59;2596135;28;20076;-84
2022/06/08 04:01:23;;;;;;;5.68;3.15;;;;;;;12.37;100.00;98019.84;2596142;28;20057;-83
2022/06/08 04:02:39;;;;;;;4.68;3.20;;;;;;;12.43;100.00;98017.81;2595774;28;20057;-84
2022/06/08 04:03:55;;;;;;;3.63;3.08;;;;;;;12.47;100.00;98012.41;2595677;28;20085;-86
2022/06/08 04:05:11;;;;;;;3.90;3.35;;;;;;;12.51;100.00;98016.63;2596332;28;20530;-83
2022/06/08 04:06:27;;;;;;;3.45;3.10;;;;;;;12.50;100.00;98018.41;2596132;28;20175;-85
2022/06/08 04:07:42;;;;;;;6.28;3.40;;;;;;;12.50;100.00;98021.03;2596272;28;20053;-85
2022/06/08 04:08:58;;;;;;;3.75;3.17;;;;;;;12.43;100.00;98017.81;2596397;28;20085;-83
2022/06/08 04:10:13;;;;;;;5.53;3.15;;;;;;;12.50;100.00;98021.03;2596341;28;20061;-84
2022/06/08 04:11:30;;;;;;;3.33;3.03;;;;;;;12.46;100.00;98022.06;2596125;28;20769;-85
2022/06/08 04:12:46;;;;;;;7.88;3.38;;;;;;;12.36;100.00;98020.75;2596284;28;20049;-83
2022/06/08 04:14:01;;;;;;;7.20;3.10;;;;;;;12.40;100.00;98025.81;2596067;28;20056;-82
2022/06/08 04:16:52;;;;;;;14.50;2.97;;;;;;;12.40;100.00;98025.81;2595944;28;20111;-84
2022/06/08 04:18:12;;;;;;;14.23;3.35;;;;;;;12.38;100.00;98013.66;2596207;28;20045;-89
2022/06/08 04:19:29;;;;;;;6.28;2.85;;;;;;;12.47;100.00;98015.91;2596783;28;20575;-84
2022/06/08 04:20:48;;;;;;;6.20;3.00;;;;;;;12.49;100.00;98014.06;2594953;28;20416;-82
2022/06/08 04:22:04;;;;;;;4.57;3.15;;;;;;;12.53;100.00;98015.63;2595045;28;20116;-84
2022/06/08 04:23:21;;;;;;;8.52;3.45;;;;;;;12.56;100.00;98015.50;2595981;28;20579;-87
2022/06/08 04:24:37;;;;;;;10.82;4.30;;;;;;;12.52;100.00;98013.94;2595939;28;20221;-86
2022/06/08 04:25:53;;;;;;;22.95;4.82;;;;;;;12.47;100.00;98021.16;2595911;28;20634;-84
2022/06/08 04:27:10;;;;;;;24.55;4.68;;;;;;;12.52;100.00;98019.19;2596113;28;20419;-85
2022/06/08 04:28:27;;;;;;;39.17;4.65;;;;;;;12.52;100.00;98016.56;2595888;28;20092;-84
2022/06/08 04:29:43;;;;;;;31.77;5.85;;;;;;;12.62;100.00;98018.78;2595938;28;20396;-89
2022/06/08 04:30:58;;;;;;;26.65;5.70;;;;;;;12.68;100.00;98021.13;2595080;28;20053;-85
2022/06/08 04:32:14;;;;;;;43.15;5.80;;;;;;;12.68;100.00;98015.88;2595145;28;20103;-84
2022/06/08 04:33:30;;;;;;;58.45;5.95;;;;;;;12.69;100.00;98015.84;2596099;28;20045;-84
2022/06/08 04:34:45;;;;;;;45.78;7.10;;;;;;;12.71;100.00;98015.75;2595881;28;20186;-84
2022/06/08 04:36:01;;;;;;;32.75;5.78;;;;;;;12.71;100.00;98018.38;2596203;28;20080;-88
2022/06/08 04:37:17;;;;;;;25.55;5.85;;;;;;;12.68;100.00;98013.25;2596354;28;20496;-84
2022/06/08 04:38:33;;;;;;;28.95;5.88;;;;;;;12.65;100.00;98001.13;2596045;28;20646;-86
2022/06/08 04:39:49;;;;;;;16.80;5.13;;;;;;;12.63;100.00;98000.31;2596257;28;20443;-84
2022/06/08 04:41:05;;;;;;;12.02;4.75;;;;;;;12.62;100.00;98003.88;2596121;28;20060;-84
2022/06/08 04:42:21;;;;;;;12.40;5.10;;;;;;;12.62;100.00;98000.41;2594800;28;20785;-84
2022/06/08 04:43:37;;;;;;;9.77;5.10;;;;;;;12.64;100.00;98007.31;2595852;28;20162;-85
2022/06/08 04:44:53;;;;;;;6.90;4.75;;;;;;;12.63;100.00;98002.13;2595924;28;20091;-85
2022/06/08 04:46:14;;;;;;;8.50;4.57;;;;;;;12.63;100.00;98004.75;2596044;28;20045;-83
2022/06/08 04:47:30;;;;;;;9.90;4.90;;;;;;;12.68;100.00;98000.13;2596021;28;20099;-84
2022/06/08 04:48:46;;;;;;;6.07;4.55;;;;;;;12.75;100.00;97998.09;2595396;28;20045;-85
2022/06/08 04:50:04;;;;;;;11.80;4.32;;;;;;;12.79;100.00;97997.06;2594875;28;20060;-86
2022/06/08 04:51:20;;;;;;;9.18;5.18;;;;;;;12.81;100.00;97995.22;2595584;28;20053;-86
2022/06/08 04:52:36;;;;;;;6.75;3.83;;;;;;;12.78;100.00;97996.19;2595750;28;20508;-85
2022/06/08 04:53:52;;;;;;;11.85;4.30;;;;;;;12.77;100.00;97993.63;2595728;28;20522;-85
2022/06/08 04:55:10;;;;;;;5.18;3.95;;;;;;;12.79;100.00;97990.00;2594563;28;20076;-86
2022/06/08 04:56:25;;;;;;;12.52;4.70;;;;;;;12.82;100.00;97984.59;2595437;28;20049;-89
2022/06/08 04:57:41;;;;;;;6.38;4.00;;;;;;;12.85;100.00;97994.13;2596085;28;20115;-86
2022/06/08 04:58:57;;;;;;;7.78;4.35;;;;;;;12.82;100.00;97986.41;2595122;28;20111;-86
2022/06/08 05:00:17;;;;;;;10.50;5.00;;;;;;;12.78;100.00;97990.06;2595741;28;20073;-87
2022/06/08 05:01:33;;;;;;;22.40;5.30;;;;;;;12.83;100.00;97986.31;2595599;28;20068;-90
2022/06/08 05:02:50;;;;;;;31.55;6.00;;;;;;;12.82;100.00;97987.25;2595874;28;20148;-87
2022/06/08 05:04:06;;;;;;;32.20;5.75;;;;;;;12.62;100.00;97989.91;2595311;28;20049;-85
2022/06/08 05:05:29;;;;;;;23.73;5.20;;;;;;;12.73;100.00;97985.03;2595377;28;20049;-86
2022/06/08 05:06:45;;;;;;;35.03;5.72;;;;;;;12.74;100.00;97981.50;2595741;28;20168;-86
2022/06/08 05:08:02;;;;;;;55.85;6.35;;;;;;;12.88;100.00;97985.28;2595441;28;20074;-86
2022/06/08 05:09:17;;;;;;;72.93;7.43;;;;;;;12.95;100.00;97979.69;2595270;28;20447;-86
2022/06/08 05:10:35;;;;;;;63.47;6.80;;;;;;;13.02;100.00;97979.38;2594948;28;20129;-86
2022/06/08 05:11:50;;;;;;;37.08;5.63;;;;;;;12.99;100.00;97980.38;2595312;28;20720;-86
2022/06/08 05:13:08;;;;;;;79.45;7.43;;;;;;;13.10;100.00;97980.72;2593101;28;20049;-86
2022/06/08 05:14:23;;;;;;;52.65;5.88;;;;;;;13.02;100.00;97975.00;2589719;28;20065;-86
2022/06/08 05:15:41;;;;;;;53.55;5.82;;;;;;;12.95;100.00;97976.19;2595247;28;20407;-87
2022/06/08 05:16:57;;;;;;;38.70;5.53;;;;;;;12.93;100.00;97976.28;2595335;28;20042;-88
2022/06/08 05:18:15;;;;;;;25.23;5.35;;;;;;;13.05;100.00;97977.47;2595343;28;20081;-85
2022/06/08 05:19:30;;;;;;;49.25;5.78;;;;;;;13.12;100.00;97978.88;2595988;28;20502;-86
2022/06/08 05:20:46;;;;;;;12.25;5.40;;;;;;;13.15;100.00;97980.53;2595668;28;20084;-85
2022/06/08 05:22:02;;;;;;;26.15;5.32;;;;;;;13.20;100.00;97975.94;2594954;28;20150;-85
2022/06/08 05:23:24;;;;;;;12.50;5.47;;;;;;;13.26;100.00;97977.41;2595482;28;20707;-88
2022/06/08 05:24:40;;;;;;;22.80;4.88;;;;;;;13.23;100.00;97972.28;2594995;28;20050;-84
2022/06/08 05:25:56;;;;;;;19.52;5.25;;;;;;;13.32;100.00;97976.25;2593978;28;20042;-82
2022/06/08 05:27:12;;;;;;;22.60;5.28;;;;;;;13.30;100.00;97975.50;2593442;28;20045;-82
2022/06/08 05:28:28;;;;;;;11.65;5.05;;;;;;;13.26;100.00;97973.00;2593664;28;20560;-84
2022/06/08 05:29:44;;;;;;;25.67;5.22;;;;;;;13.42;100.00;97973.16;2594984;28;20581;-89
2022/06/08 05:31:00;;;;;;;29.52;5.05;;;;;;;13.44;100.00;97972.25;2594535;28;20136;-88
2022/06/08 05:32:16;;;;;;;14.00;5.07;;;;;;;13.41;100.00;97966.19;2594084;28;20046;-91
2022/06/08 05:33:32;;;;;;;7.70;4.53;;;;;;;13.35;100.00;97971.72;2595320;28;20080;-89
2022/06/08 05:34:48;;;;;;;8.13;4.85;;;;;;;13.39;100.00;97972.44;2595714;28;20049;-91
2022/06/08 05:36:04;;;;;;;6.57;4.63;;;;;;;13.41;100.00;97978.47;2595809;28;20156;-89
2022/06/08 05:37:20;;;;;;;4.80;4.28;;;;;;;13.46;100.00;97976.50;2595363;28;20042;-90
2022/06/08 05:38:37;;;;;;;6.13;4.95;;;;;;;13.45;100.00;97977.41;2597480;28;20163;-89
2022/06/08 05:39:52;;;;;;;7.25;4.50;;;;;;;13.38;100.00;97971.56;2598208;28;20049;-88
2022/06/08 05:41:08;;;;;;;6.68;4.35;;;;;;;13.45;100.00;97974.78;2597805;28;20095;-88
2022/06/08 05:42:24;;;;;;;7.95;4.50;;;;;;;13.50;100.00;97970.19;2597710;28;20101;-89
2022/06/08 05:43:39;;;;;;;5.50;4.88;;;;;;;13.39;100.00;97973.28;2597684;28;20053;-90
2022/06/08 05:44:57;;;;;;;5.95;4.50;;;;;;;13.44;100.00;97980.97;2597724;28;20107;-89
2022/06/08 05:46:12;;;;;;;4.78;4.13;;;;;;;13.50;100.00;97966.69;2597741;28;20053;-89
2022/06/08 05:47:28;;;;;;;8.88;4.75;;;;;;;13.62;100.00;97970.50;2597530;28;20468;-88
2022/06/08 05:48:44;;;;;;;9.95;4.95;;;;;;;13.74;100.00;97983.06;2597666;28;20088;-89
2022/06/08 05:49:59;;;;;;;6.75;4.35;;;;;;;13.64;100.00;97974.78;2597686;28;20080;-88
2022/06/08 05:51:15;;;;;;;8.77;4.75;;;;;;;13.62;100.00;97967.88;2598001;28;20134;-87
2022/06/08 05:52:30;;;;;;;5.22;4.43;;;;;;;13.51;100.00;97979.78;2597704;28;20050;-88
2022/06/08 05:53:46;;;;;;;7.43;4.38;;;;;;;13.69;100.00;97978.06;2597939;28;20132;-91
2022/06/08 05:55:02;;;;;;;11.23;4.90;;;;;;;13.70;100.00;97977.13;2597563;28;20076;-88
2022/06/08 05:56:18;;;;;;;6.47;4.45;;;;;;;13.69;100.00;97979.81;2597734;28;20111;-88
2022/06/08 05:57:33;;;;;;;10.55;4.80;;;;;;;13.55;100.00;97970.81;2597967;28;20045;-90
2022/06/08 05:58:49;;;;;;;6.78;4.35;;;;;;;13.57;100.00;97976.00;2597632;28;20061;-89
2022/06/08 06:00:07;;;;;;;6.85;4.82;;;;;;;13.61;100.00;97977.56;2597453;28;20045;-89
2022/06/08 06:01:23;;;;;;;5.32;4.70;;;;;;;13.64;100.00;97977.41;2597410;28;20056;-89
2022/06/08 06:02:38;;;;;;;6.63;4.78;;;;;;;13.68;100.00;97978.13;2597857;28;20537;-89
2022/06/08 06:03:54;;;;;;;5.60;4.78;;;;;;;13.74;100.00;97979.59;2597887;28;20084;-89
2022/06/08 06:05:12;;;;;;;5.25;4.75;;;;;;;13.83;100.00;97976.53;2597659;28;20061;-92
2022/06/08 06:06:29;;;;;;;5.30;4.70;;;;;;;13.82;100.00;97973.03;2597522;28;20156;-88
2022/06/08 06:07:45;;;;;;;5.43;4.35;;;;;;;13.90;100.00;97977.06;2597611;28;20480;-88
2022/06/08 06:09:02;;;;;;;5.68;5.07;;;;;;;13.97;100.00;97976.69;2597538;28;20053;-88
2022/06/08 06:10:18;;;;;;;5.93;4.40;;;;;;;13.98;100.00;97978.41;2597655;28;20049;-88
2022/06/08 06:11:34;;;;;;;4.90;4.40;;;;;;;14.00;100.00;97977.47;2597365;28;20053;-88
2022/06/08 06:12:53;;;;;;;5.05;4.55;;;;;;;14.05;100.00;97976.31;2597637;28;20049;-92
2022/06/08 06:14:10;;;;;;;5.10;4.57;;;;;;;14.19;100.00;97975.63;2597580;28;20057;-88
2022/06/08 06:15:25;;;;;;;5.65;4.82;;;;;;;14.22;100.00;97974.63;2597754;28;20546;-90